Time;durP1;ratioP1;P1;durP2;ratioP2;P2;SDS_P1;SDS_P2;PMS_P1;PMS_P2;Temp;Humidity;BMP_temperature;BMP_pressure;BME280_temperature;BME280_humidity;BME280_pressure;Samples;Min_cycle;Max_cycle;Signal;HPM_P1;HPM_P2
2023/02/12 00:03:47;;;;;;;;;;;;;;;7.90;100.00;103735.56;10363323;28;20403;-65
2023/02/12 00:08:50;;;;;;;;;;;;;;;7.66;100.00;103741.63;10364105;28;19975;-65
2023/02/12 00:13:52;;;;;;;;;;;;;;;8.05;100.00;103739.91;10382014;28;19925;-66
2023/02/12 00:18:55;;;;;;;;;;;;;;;7.86;100.00;103739.03;10381161;28;19926;-65
2023/02/12 00:23:57;;;;;;;;;;;;;;;7.72;100.00;103737.28;10378992;28;19929;-66
2023/02/12 00:28:59;;;;;;;;;;;;;;;7.90;100.00;103746.00;10381118;28;19925;-65
2023/02/12 00:34:02;;;;;;;;;;;;;;;7.73;100.00;103744.25;10379976;28;19925;-65
2023/02/12 00:39:04;;;;;;;;;;;;;;;7.88;100.00;103745.97;10381038;28;19925;-65
2023/02/12 00:44:06;;;;;;;;;;;;;;;7.68;100.00;103740.72;10379788;28;19925;-65
2023/02/12 00:49:08;;;;;;;;;;;;;;;7.72;100.00;103737.28;10380773;28;19925;-65
2023/02/12 00:54:10;;;;;;;;;;;;;;;7.69;100.00;103739.00;10379455;28;20365;-65
2023/02/12 00:59:13;;;;;;;;;;;;;;;7.70;100.00;103743.34;10378689;28;20277;-65
2023/02/12 01:04:15;;;;;;;;;;;;;;;7.62;100.00;103736.38;10378723;28;19926;-65
2023/02/12 01:09:17;;;;;;;;;;;;;;;7.60;100.00;103734.66;10361885;28;20368;-65
2023/02/12 01:14:20;;;;;;;;;;;;;;;7.62;100.00;103746.81;10379673;28;19975;-65
2023/02/12 01:19:22;;;;;;;;;;;;;;;7.66;100.00;103741.63;10377911;28;19975;-66
2023/02/12 01:24:25;;;;;;;;;;;;;;;7.63;100.00;103742.47;10379252;28;19929;-66
2023/02/12 01:29:27;;;;;;;;;;;;;;;7.30;100.00;103732.84;10378730;28;19933;-65
2023/02/12 01:34:29;;;;;;;;;;;;;;;7.37;100.00;103731.97;10377945;28;19925;-65
2023/02/12 01:39:31;;;;;;;;;;;;;;;7.57;100.00;103735.50;10378152;28;20423;-65
2023/02/12 01:44:36;;;;;;;;;;;;;;;7.51;100.00;103742.44;10378524;28;19925;-65
2023/02/12 01:49:39;;;;;;;;;;;;;;;7.63;100.00;103737.25;10360536;28;19926;-65
2023/02/12 01:54:41;;;;;;;;;;;;;;;7.66;100.00;103736.41;10359280;28;19929;-65
2023/02/12 01:59:44;;;;;;;;;;;;;;;7.63;100.00;103735.53;10360491;28;19925;-66
2023/02/12 02:04:47;;;;;;;;;;;;;;;7.60;100.00;103732.91;10375348;28;19952;-65
2023/02/12 02:09:49;;;;;;;;;;;;;;;7.41;100.00;103734.63;10358673;28;20431;-65
2023/02/12 02:14:52;;;;;;;;;;;;;;;7.72;100.00;103733.81;10377379;28;19983;-65
2023/02/12 02:20:04;;;;;;;;;;;;;;;7.46;100.00;103728.53;10359162;28;19925;-65
2023/02/12 02:25:25;;;;;;;;;;;;;;;7.48;100.00;103716.34;10375407;28;19933;-65
2023/02/12 02:30:34;;;;;;;;;;;;;;;7.60;100.00;103712.06;10375456;28;19933;-65
2023/02/12 02:35:36;;;;;;;;;;;;;;;7.42;100.00;103714.63;10359229;28;19979;-65
2023/02/12 02:40:45;;;;;;;;;;;;;;;7.53;100.00;103712.91;10375843;28;20380;-66
2023/02/12 02:45:48;;;;;;;;;;;;;;;7.39;100.00;103706.78;10375653;28;19930;-65
2023/02/12 02:50:58;;;;;;;;;;;;;;;7.41;100.00;103705.03;10358173;28;20335;-65
2023/02/12 02:56:01;;;;;;;;;;;;;;;7.45;100.00;103701.59;10357289;28;19925;-65
2023/02/12 03:01:22;;;;;;;;;;;;;;;7.39;100.00;103694.63;10357093;28;19932;-65
2023/02/12 03:06:26;;;;;;;;;;;;;;;7.39;100.00;103693.75;10375064;28;20015;-65
2023/02/12 03:11:29;;;;;;;;;;;;;;;7.67;100.00;103704.25;10342177;28;19925;-65
2023/02/12 03:16:32;;;;;;;;;;;;;;;7.62;100.00;103705.09;10357014;28;19925;-65
2023/02/12 03:21:49;;;;;;;;;;;;;;;7.41;100.00;103707.66;10358025;28;19965;-65
2023/02/12 03:26:53;;;;;;;;;;;;;;;7.32;100.00;103705.03;10356274;28;20388;-65
2023/02/12 03:32:05;;;;;;;;;;;;;;;7.40;100.00;103711.16;10356953;28;20361;-65
2023/02/12 03:37:08;;;;;;;;;;;;;;;7.63;100.00;103708.56;10374505;28;19960;-65
2023/02/12 03:42:10;;;;;;;;;;;;;;;7.39;100.00;103705.03;10371359;23;19933;-66
2023/02/12 03:47:24;;;;;;;;;;;;;;;7.49;100.00;103715.50;10415796;28;19951;-65
2023/02/12 03:52:27;;;;;;;;;;;;;;;7.45;100.00;103712.03;10413939;28;19925;-66
2023/02/12 03:57:31;;;;;;;;;;;;;;;7.57;100.00;103714.66;10412608;28;19925;-65
2023/02/12 04:02:33;;;;;;;;;;;;;;;7.31;100.00;103709.34;10414263;28;19925;-66
2023/02/12 04:07:35;;;;;;;;;;;;;;;7.42;100.00;103715.47;10415397;28;19925;-66
2023/02/12 04:12:49;;;;;;;;;;;;;;;7.27;100.00;103718.03;10413130;28;19925;-65
2023/02/12 04:18:10;;;;;;;;;;;;;;;7.20;100.00;103721.50;10414497;28;19979;-65
2023/02/12 04:23:35;;;;;;;;;;;;;;;7.33;100.00;103738.03;10414985;28;19926;-65
2023/02/12 04:28:37;;;;;;;;;;;;;;;7.25;100.00;103736.28;10417814;28;19925;-66
2023/02/12 04:34:01;;;;;;;;;;;;;;;7.33;100.00;103746.75;10421753;28;20391;-65
2023/02/12 04:39:05;;;;;;;;;;;;;;;7.35;100.00;103746.75;10420443;28;20344;-65
2023/02/12 04:44:20;;;;;;;;;;;;;;;7.15;100.00;103755.34;10419347;28;19925;-66
2023/02/12 04:49:23;;;;;;;;;;;;;;;7.37;100.00;103756.31;10420618;28;19932;-65
2023/02/12 04:54:25;;;;;;;;;;;;;;;7.44;100.00;103759.81;10418977;28;19925;-65
2023/02/12 04:59:27;;;;;;;;;;;;;;;7.50;98.75;103749.41;10419788;28;19932;-65
2023/02/12 05:04:30;;;;;;;;;;;;;;;7.33;98.56;103754.56;10419269;28;19932;-65
2023/02/12 05:09:32;;;;;;;;;;;;;;;7.37;97.62;103750.22;10420091;28;19925;-65
2023/02/12 05:14:34;;;;;;;;;;;;;;;7.60;96.95;103742.47;10420749;28;19925;-65
2023/02/12 05:19:36;;;;;;;;;;;;;;;7.49;97.93;103754.63;10420658;28;19929;-68
2023/02/12 05:24:39;;;;;;;;;;;;;;;7.46;97.38;103750.25;10418797;28;19929;-73
2023/02/12 05:29:41;;;;;;;;;;;;;;;7.41;97.28;103758.06;10418512;28;19929;-73
2023/02/12 05:34:43;;;;;;;;;;;;;;;7.48;98.93;103760.69;10418796;28;19925;-73
2023/02/12 05:39:47;;;;;;;;;;;;;;;7.58;97.73;103762.44;10418799;28;19925;-71
2023/02/12 05:44:49;;;;;;;;;;;;;;;7.66;97.30;103765.94;10419264;28;19979;-66
2023/02/12 05:49:52;;;;;;;;;;;;;;;7.59;99.17;103765.06;10419405;28;19944;-66
2023/02/12 05:54:54;;;;;;;;;;;;;;;7.57;97.58;103758.97;10417636;28;19925;-66
2023/02/12 05:59:56;;;;;;;;;;;;;;;7.69;96.71;103765.09;10418326;28;19925;-66
2023/02/12 06:04:58;;;;;;;;;;;;;;;7.76;98.02;103762.47;10418825;28;19929;-66
2023/02/12 06:10:00;;;;;;;;;;;;;;;7.76;98.25;103772.91;10417259;28;19925;-66
2023/02/12 06:15:03;;;;;;;;;;;;;;;7.60;98.48;103772.03;10416817;28;20390;-66
2023/02/12 06:20:05;;;;;;;;;;;;;;;7.44;98.29;103773.69;10418089;28;19929;-66
2023/02/12 06:25:07;;;;;;;;;;;;;;;7.66;99.15;103778.97;10416222;28;19929;-66
2023/02/12 06:30:10;;;;;;;;;;;;;;;7.58;98.55;103783.31;10416352;28;19932;-66
2023/02/12 06:35:12;;;;;;;;;;;;;;;7.60;100.00;103787.66;10415456;28;19925;-66
2023/02/12 06:40:14;;;;;;;;;;;;;;;7.54;100.00;103786.78;10416765;28;19925;-70
2023/02/12 06:45:16;;;;;;;;;;;;;;;7.45;100.00;103790.22;10416431;28;19925;-71
2023/02/12 06:50:19;;;;;;;;;;;;;;;7.54;99.28;103789.38;10416040;28;19975;-70
2023/02/12 06:55:21;;;;;;;;;;;;;;;7.49;100.00;103788.50;10415845;28;19925;-71
2023/02/12 07:00:24;;;;;;;;;;;;;;;7.46;100.00;103791.97;10416319;28;19925;-70
2023/02/12 07:05:26;;;;;;;;;;;;;;;7.48;100.00;103799.78;10415114;28;19925;-71
2023/02/12 07:10:28;;;;;;;;;;;;;;;7.44;100.00;103807.59;10415934;28;20344;-70
2023/02/12 07:15:30;;;;;;;;;;;;;;;7.50;100.00;103803.25;10415757;28;19932;-70
2023/02/12 07:20:33;;;;;;;;;;;;;;;7.59;100.00;103816.34;10415018;28;19925;-71
2023/02/12 07:25:35;;;;;;;;;;;;;;;7.49;100.00;103815.44;10415485;28;20288;-70
2023/02/12 07:30:37;;;;;;;;;;;;;;;7.61;100.00;103814.59;10398092;28;19931;-70
2023/02/12 07:35:43;;;;;;;;;;;;;;;7.37;100.00;103820.63;10414891;28;19932;-71
2023/02/12 07:40:45;;;;;;;;;;;;;;;7.52;100.00;103823.28;10414686;28;19925;-70
2023/02/12 07:45:47;;;;;;;;;;;;;;;7.46;100.00;103828.44;10415107;28;19929;-70
2023/02/12 07:50:49;;;;;;;;;;;;;;;7.54;100.00;103831.97;10413070;28;19924;-71
2023/02/12 07:55:52;;;;;;;;;;;;;;;7.65;100.00;103829.41;10413943;28;19925;-71
2023/02/12 08:00:54;;;;;;;;;;;;;;;7.86;100.00;103833.81;10416092;28;19939;-71
2023/02/12 08:05:56;;;;;;;;;;;;;;;7.84;100.00;103826.88;10420393;28;20380;-71
2023/02/12 08:10:59;;;;;;;;;;;;;;;7.98;100.00;103827.75;10421397;28;19936;-71
2023/02/12 08:16:02;;;;;;;;;;;;;;;7.97;100.00;103839.94;10421075;28;20364;-71
2023/02/12 08:21:06;;;;;;;;;;;;;;;8.02;100.00;103844.28;10414403;28;20012;-71
2023/02/12 08:26:09;;;;;;;;;;;;;;;8.12;100.00;103864.31;10378524;28;19926;-71
2023/02/12 08:31:12;;;;;;;;;;;;;;;8.19;95.14;103847.81;10380354;28;19933;-71
2023/02/12 08:36:16;;;;;;;;;;;;;;;8.31;94.52;103860.88;10401669;28;19964;-71
2023/02/12 08:41:22;;;;;;;;;;;;;;;8.15;94.34;103862.59;10421730;28;19937;-71
2023/02/12 08:46:25;;;;;;;;;;;;;;;8.50;93.28;103866.13;10420216;28;19932;-71
2023/02/12 08:51:30;;;;;;;;;;;;;;;8.46;91.58;103867.88;10419927;28;19979;-71
2023/02/12 08:56:33;;;;;;;;;;;;;;;8.62;91.40;103875.72;10419700;28;19925;-71
2023/02/12 09:01:42;;;;;;;;;;;;;;;8.62;90.30;103875.72;10420080;28;19929;-71
2023/02/12 09:06:45;;;;;;;;;;;;;;;8.55;90.75;103878.31;10420519;28;20288;-71
2023/02/12 09:11:48;;;;;;;;;;;;;;;8.34;91.22;103880.91;10419456;28;19925;-71
2023/02/12 09:16:51;;;;;;;;;;;;;;;8.72;90.45;103895.72;10419545;28;20290;-71
2023/02/12 09:21:54;;;;;;;;;;;;;;;8.82;88.58;103884.41;10419281;28;19952;-71
2023/02/12 09:26:57;;;;;;;;;;;;;;;8.61;87.49;103890.53;10418558;28;19940;-71
2023/02/12 09:32:01;;;;;;;;;;;;;;;8.79;87.26;103897.47;10419469;28;20379;-71
2023/02/12 09:37:03;;;;;;;;;;;;;;;8.97;86.03;103896.59;10419970;28;19926;-71
2023/02/12 09:42:08;;;;;;;;;;;;;;;9.03;85.21;103895.72;10417879;28;20434;-70
2023/02/12 09:47:22;;;;;;;;;;;;;;;8.79;85.88;103894.84;10401202;28;19932;-70
2023/02/12 09:52:25;;;;;;;;;;;;;;;8.85;85.17;103892.25;10417533;28;19971;-71
2023/02/12 09:57:35;;;;;;;;;;;;;;;8.85;86.14;103889.63;10417969;28;19928;-71
2023/02/12 10:02:37;;;;;;;;;;;;;;;9.09;84.70;103899.22;10417736;28;19925;-71
2023/02/12 10:07:43;;;;;;;;;;;;;;;9.05;83.58;103902.69;10416940;28;19925;-71
2023/02/12 10:12:59;;;;;;;;;;;;;;;9.13;84.63;103900.06;10417894;28;20296;-71
2023/02/12 10:18:01;;;;;;;;;;;;;;;9.05;82.77;103897.47;10417678;28;19948;-71
2023/02/12 10:23:20;;;;;;;;;;;;;;;9.18;83.28;103905.25;10417778;28;19925;-71
2023/02/12 10:28:24;;;;;;;;;;;;;;;9.33;84.25;103891.28;10416048;28;19928;-71
2023/02/12 10:33:34;;;;;;;;;;;;;;;9.03;81.77;103893.97;10416133;28;20399;-71
2023/02/12 10:38:38;;;;;;;;;;;;;;;9.22;82.82;103892.19;10415827;28;20375;-71
2023/02/12 10:43:41;;;;;;;;;;;;;;;9.30;82.13;103895.66;10416132;28;19929;-71
2023/02/12 10:48:43;;;;;;;;;;;;;;;9.20;82.19;103888.72;10415330;28;19932;-71
2023/02/12 10:53:47;;;;;;;;;;;;;;;9.18;81.00;103892.19;10415889;28;19928;-71
2023/02/12 10:58:49;;;;;;;;;;;;;;;9.78;79.86;103871.94;10416286;28;20388;-71
2023/02/12 11:03:52;;;;;;;;;;;;;;;10.02;80.65;103880.56;10416045;28;20442;-71
2023/02/12 11:08:54;;;;;;;;;;;;;;;9.94;80.85;103875.34;10415928;28;19929;-71
2023/02/12 11:14:04;;;;;;;;;;;;;;;10.09;80.34;103863.06;10414672;28;19925;-71
2023/02/12 11:19:07;;;;;;;;;;;;;;;10.06;79.62;103863.06;10414557;28;20287;-71
2023/02/12 11:24:38;;;;;;;;;;;;;;;9.87;80.41;103865.81;10414934;28;19936;-71
2023/02/12 11:29:41;;;;;;;;;;;;;;;9.78;80.13;103858.00;10402329;28;20288;-71
2023/02/12 11:34:43;;;;;;;;;;;;;;;9.75;79.33;103853.66;10415774;28;19926;-71
2023/02/12 11:39:46;;;;;;;;;;;;;;;9.99;79.28;103844.78;10423826;28;19932;-71
2023/02/12 11:44:52;;;;;;;;;;;;;;;10.12;78.96;103849.94;10422733;28;19925;-71
2023/02/12 11:49:55;;;;;;;;;;;;;;;9.83;79.30;103837.91;10422228;28;20328;-71
2023/02/12 11:55:13;;;;;;;;;;;;;;;10.11;81.04;103843.84;10422072;28;20035;-71
2023/02/12 12:00:20;;;;;;;;;;;;;;;10.00;79.16;103837.78;10421962;28;20418;-71
2023/02/12 12:05:22;;;;;;;;;;;;;;;9.97;78.87;103833.47;10422228;28;19972;-71
2023/02/12 12:10:24;;;;;;;;;;;;;;;10.41;80.00;103831.44;10423268;28;19975;-71
2023/02/12 12:21:00;;;;;;;;;;;;;;;10.21;79.10;103827.19;10421272;28;19980;-71
2023/02/12 12:26:03;;;;;;;;;;;;;;;10.01;79.82;103821.22;10421730;28;19929;-71
2023/02/12 12:31:09;;;;;;;;;;;;;;;9.97;80.09;103817.75;10420751;28;19925;-71
2023/02/12 12:36:14;;;;;;;;;;;;;;;10.04;78.64;103818.59;10421122;28;20012;-71
2023/02/12 12:41:28;;;;;;;;;;;;;;;10.18;79.74;103806.25;10421470;28;19925;-71
2023/02/12 12:46:51;;;;;;;;;;;;;;;10.11;78.73;103798.47;10420423;28;19948;-71
2023/02/12 12:52:02;;;;;;;;;;;;;;;10.29;79.78;103802.66;10419816;28;19933;-71
2023/02/12 12:57:10;;;;;;;;;;;;;;;10.16;79.19;103797.53;10420855;28;20368;-71
2023/02/12 13:02:31;;;;;;;;;;;;;;;9.90;80.01;103792.50;10419576;28;19925;-71
2023/02/12 13:07:36;;;;;;;;;;;;;;;9.72;79.42;103790.88;10420433;28;19932;-71
2023/02/12 13:12:53;;;;;;;;;;;;;;;9.92;80.47;103782.00;10420285;28;20403;-71
2023/02/12 13:18:02;;;;;;;;;;;;;;;9.91;80.03;103770.69;10420673;28;19925;-71
2023/02/12 13:23:23;;;;;;;;;;;;;;;9.80;80.27;103775.09;10420413;28;19926;-71
2023/02/12 13:28:31;;;;;;;;;;;;;;;9.92;80.02;103774.16;10419675;28;19925;-71
2023/02/12 13:33:38;;;;;;;;;;;;;;;9.69;80.89;103772.56;10419096;28;19925;-71
2023/02/12 13:38:43;;;;;;;;;;;;;;;9.67;80.59;103774.34;10418218;28;20292;-71
2023/02/12 13:44:01;;;;;;;;;;;;;;;9.52;79.70;103771.81;10419631;28;19929;-71
2023/02/12 13:49:03;;;;;;;;;;;;;;;9.85;80.46;103768.97;10420116;28;19928;-71
2023/02/12 13:54:15;;;;;;;;;;;;;;;9.45;79.72;103765.75;10418161;28;19932;-71
2023/02/12 13:59:33;;;;;;;;;;;;;;;9.91;80.90;103765.44;10416324;28;19932;-71
2023/02/12 14:05:07;;;;;;;;;;;;;;;9.51;80.55;103765.69;10418857;28;19933;-71
2023/02/12 14:10:23;;;;;;;;;;;;;;;9.72;80.35;103762.09;10396062;28;20268;-71
2023/02/12 14:15:27;;;;;;;;;;;;;;;9.67;80.73;103761.25;10416707;28;19925;-71
2023/02/12 14:20:31;;;;;;;;;;;;;;;9.61;80.48;103759.53;10417645;28;20398;-71
2023/02/12 14:25:38;;;;;;;;;;;;;;;9.72;80.27;103759.47;10416870;28;19925;-71
2023/02/12 14:30:40;;;;;;;;;;;;;;;9.50;81.27;103756.13;10416142;28;20333;-71
2023/02/12 14:35:46;;;;;;;;;;;;;;;9.54;82.02;103754.34;10416514;28;19925;-71
2023/02/12 14:40:49;;;;;;;;;;;;;;;9.49;80.68;103762.22;10415724;28;19925;-71
2023/02/12 14:45:52;;;;;;;;;;;;;;;9.73;80.88;103744.63;10415322;28;20407;-71
2023/02/12 14:50:54;;;;;;;;;;;;;;;9.55;80.81;103756.06;10417168;28;19929;-71
2023/02/12 14:55:56;;;;;;;;;;;;;;;9.52;82.29;103749.13;10416465;28;19951;-71
2023/02/12 15:00:59;;;;;;;;;;;;;;;9.68;81.01;103747.28;10416924;28;19925;-71
2023/02/12 15:06:02;;;;;;;;;;;;;;;9.64;81.71;103745.56;10416578;28;19929;-71
2023/02/12 15:11:13;;;;;;;;;;;;;;;9.55;83.33;103748.22;10414442;28;20468;-71
2023/02/12 15:16:23;;;;;;;;;;;;;;;9.58;81.75;103740.38;10399162;28;19932;-71
2023/02/12 15:21:30;;;;;;;;;;;;;;;9.49;80.96;103738.69;10414339;28;20067;-71
2023/02/12 15:26:42;;;;;;;;;;;;;;;9.39;84.67;103735.25;10414153;28;20213;-71
2023/02/12 15:31:44;;;;;;;;;;;;;;;9.35;83.01;103736.16;10413963;28;19925;-71
2023/02/12 15:36:46;;;;;;;;;;;;;;;9.47;83.46;103736.06;10413904;28;20266;-71
2023/02/12 15:41:48;;;;;;;;;;;;;;;9.26;85.13;103733.56;10414975;28;20288;-70
2023/02/12 15:46:54;;;;;;;;;;;;;;;9.28;85.69;103732.69;10414931;28;19929;-71
2023/02/12 15:51:56;;;;;;;;;;;;;;;9.25;85.55;103732.72;10414904;28;19925;-71
2023/02/12 15:56:58;;;;;;;;;;;;;;;9.09;85.68;103726.69;10427242;22;20368;31
2023/02/12 16:02:02;;;;;;;;;;;;;;;9.10;86.35;103733.63;10371444;28;20331;-66
2023/02/12 16:07:05;;;;;;;;;;;;;;;9.04;86.29;103720.59;10372745;28;19925;-65
2023/02/12 16:12:12;;;;;;;;;;;;;;;9.15;85.47;103719.69;10373273;28;20060;-65
2023/02/12 16:17:20;;;;;;;;;;;;;;;9.05;85.42;103717.13;10373411;28;19925;-65
2023/02/12 16:22:25;;;;;;;;;;;;;;;8.91;86.99;103713.72;10374519;28;19965;-65
2023/02/12 16:27:29;;;;;;;;;;;;;;;8.98;88.13;103722.34;10381245;28;19995;-65
2023/02/12 16:32:34;;;;;;;;;;;;;;;8.90;86.58;103715.44;10380522;28;19926;-65
2023/02/12 16:37:36;;;;;;;;;;;;;;;8.89;85.91;103718.94;10380363;28;19925;-65
2023/02/12 16:42:54;;;;;;;;;;;;;;;8.83;87.20;103718.09;10380559;28;19926;-66
2023/02/12 16:48:00;;;;;;;;;;;;;;;8.91;87.31;103716.31;10379958;28;19925;-65
2023/02/12 16:53:03;;;;;;;;;;;;;;;8.87;85.79;103722.41;10380239;28;19948;-65
2023/02/12 16:58:07;;;;;;;;;;;;;;;8.77;87.60;103731.16;10377126;28;19984;-65
2023/02/12 17:03:11;;;;;;;;;;;;;;;8.69;87.23;103732.06;10378612;28;20296;-65
2023/02/12 17:08:14;;;;;;;;;;;;;;;8.61;88.83;103738.16;10379028;28;19925;-65
2023/02/12 17:13:16;;;;;;;;;;;;;;;8.52;90.04;103736.44;10378211;28;19933;-65
2023/02/12 17:18:18;;;;;;;;;;;;;;;8.49;90.04;103733.81;10379140;28;20312;-65
2023/02/12 17:23:21;;;;;;;;;;;;;;;8.53;89.21;103739.03;10377842;28;20331;-65
2023/02/12 17:28:24;;;;;;;;;;;;;;;8.36;91.57;103741.63;10377278;28;20396;-65
2023/02/12 17:33:29;;;;;;;;;;;;;;;8.36;91.63;103748.63;10379850;28;19937;-65
2023/02/12 17:38:31;;;;;;;;;;;;;;;8.39;92.41;103756.44;10378163;28;19957;-65
2023/02/12 17:43:33;;;;;;;;;;;;;;;8.32;91.81;103752.97;10378152;28;19933;-65
2023/02/12 17:48:35;;;;;;;;;;;;;;;8.42;92.48;103758.16;10376970;28;20323;-65
2023/02/12 17:53:38;;;;;;;;;;;;;;;8.19;91.44;103756.47;10377917;28;19956;-65
2023/02/12 17:58:41;;;;;;;;;;;;;;;8.27;94.05;103766.88;10373294;28;20368;-65
2023/02/12 18:03:43;;;;;;;;;;;;;;;8.25;94.26;103764.25;10376963;28;19925;-65
2023/02/12 18:08:45;;;;;;;;;;;;;;;8.19;93.38;103766.91;10407687;28;19925;-65
2023/02/12 18:13:50;;;;;;;;;;;;;;;8.10;94.81;103767.78;10416833;28;19951;-65
2023/02/12 18:18:52;;;;;;;;;;;;;;;8.14;94.06;103760.81;10389327;28;19979;-65
2023/02/12 18:23:55;;;;;;;;;;;;;;;8.23;94.49;103768.63;10375368;28;19932;-65
2023/02/12 18:28:58;;;;;;;;;;;;;;;8.22;94.04;103763.41;10374991;28;19972;-65
2023/02/12 18:34:00;;;;;;;;;;;;;;;8.12;93.42;103768.63;10375831;28;19940;-65
2023/02/12 18:39:02;;;;;;;;;;;;;;;8.11;94.15;103759.06;10374223;28;19925;-65
2023/02/12 18:44:04;;;;;;;;;;;;;;;8.13;95.19;103759.91;10376423;28;19929;-65
2023/02/12 18:49:07;;;;;;;;;;;;;;;8.13;93.68;103756.44;10376321;28;19971;-65
2023/02/12 18:54:10;;;;;;;;;;;;;;;8.00;96.16;103756.44;10374420;28;19933;-65
2023/02/12 18:59:12;;;;;;;;;;;;;;;8.01;94.92;103765.13;10374603;28;20392;-65
2023/02/12 19:04:15;;;;;;;;;;;;;;;8.04;95.99;103764.28;10374175;28;20377;-65
2023/02/12 19:09:19;;;;;;;;;;;;;;;8.00;94.69;103766.88;10374297;28;19948;-66
2023/02/12 19:14:21;;;;;;;;;;;;;;;7.97;96.43;103748.63;10373707;28;19972;-65
2023/02/12 19:19:23;;;;;;;;;;;;;;;8.01;96.18;103752.09;10375131;28;19926;-65
2023/02/12 19:24:25;;;;;;;;;;;;;;;8.04;94.59;103752.09;10373425;28;20002;-65
2023/02/12 19:29:42;;;;;;;;;;;;;;;7.79;97.41;103754.66;10375412;28;19930;-65
2023/02/12 19:34:44;;;;;;;;;;;;;;;8.11;95.72;103748.63;10374086;28;20284;-65
2023/02/12 19:39:46;;;;;;;;;;;;;;;7.87;96.88;103759.91;10375002;28;19979;-65
2023/02/12 19:44:49;;;;;;;;;;;;;;;7.98;95.21;103747.75;10375019;28;19936;-65
2023/02/12 19:49:51;;;;;;;;;;;;;;;8.04;95.56;103746.03;10373483;28;20377;-65
2023/02/12 19:54:53;;;;;;;;;;;;;;;7.76;96.82;103746.84;10347005;28;19930;-65
2023/02/12 19:59:55;;;;;;;;;;;;;;;7.84;98.90;103744.25;10381255;28;20373;-65
2023/02/12 20:04:58;;;;;;;;;;;;;;;7.74;97.40;103745.97;10382034;28;19933;-65
2023/02/12 20:10:00;;;;;;;;;;;;;;;7.97;97.56;103750.38;10381493;28;19926;-65
2023/02/12 20:15:03;;;;;;;;;;;;;;;7.91;98.65;103746.00;10381523;28;19925;-65
2023/02/12 20:20:06;;;;;;;;;;;;;;;7.93;96.90;103744.25;10380819;28;20372;-65
2023/02/12 20:25:08;;;;;;;;;;;;;;;7.93;96.54;103746.84;10379992;28;19925;-65
2023/02/12 20:30:10;;;;;;;;;;;;;;;7.78;97.94;103744.22;10381762;28;19977;-65
2023/02/12 20:35:13;;;;;;;;;;;;;;;7.94;96.59;103739.91;10380032;28;20377;-65
2023/02/12 20:40:15;;;;;;;;;;;;;;;7.82;97.00;103735.56;10379947;28;19926;-65
2023/02/12 20:45:18;;;;;;;;;;;;;;;7.84;98.33;103735.56;10380502;28;19932;-65
2023/02/12 20:50:20;;;;;;;;;;;;;;;7.86;100.00;103733.81;10380028;28;19929;-65
2023/02/12 20:55:22;;;;;;;;;;;;;;;7.74;98.46;103727.72;10379955;28;19925;-65
2023/02/12 21:00:24;;;;;;;;;;;;;;;7.64;98.67;103725.97;10379927;28;19925;-66
2023/02/12 21:05:26;;;;;;;;;;;;;;;7.62;100.00;103733.78;10380036;28;19925;-65
2023/02/12 21:10:29;;;;;;;;;;;;;;;7.77;99.90;103735.56;10378195;28;19988;-65
2023/02/12 21:15:31;;;;;;;;;;;;;;;7.67;99.59;103733.78;10378712;28;19941;-65
2023/02/12 21:20:34;;;;;;;;;;;;;;;7.58;97.97;103726.84;10379210;28;19974;-65
2023/02/12 21:25:36;;;;;;;;;;;;;;;7.72;98.35;103737.28;10379580;28;19929;-65
2023/02/12 21:30:39;;;;;;;;;;;;;;;7.59;99.11;103736.38;10377148;28;19925;-65
2023/02/12 21:35:41;;;;;;;;;;;;;;;7.48;100.00;103719.88;10360107;28;19980;-65
2023/02/12 21:40:43;;;;;;;;;;;;;;;7.61;100.00;103728.56;10379290;28;19929;-65
2023/02/12 21:45:49;;;;;;;;;;;;;;;7.69;100.00;103715.53;10378785;28;19932;-65
2023/02/12 21:50:52;;;;;;;;;;;;;;;7.21;100.00;103724.13;10377348;28;19926;-65
2023/02/12 21:55:54;;;;;;;;;;;;;;;7.52;100.00;103728.56;10377767;28;19929;-65
2023/02/12 22:01:04;;;;;;;;;;;;;;;7.28;100.00;103722.41;10377664;28;19930;-65
2023/02/12 22:06:07;;;;;;;;;;;;;;;7.36;100.00;103728.53;10374995;28;19955;-65
2023/02/12 22:11:10;;;;;;;;;;;;;;;7.09;100.00;103718.84;10386456;28;20292;-65
2023/02/12 22:16:14;;;;;;;;;;;;;;;7.25;100.00;103718.03;10417437;28;19929;-65
2023/02/12 22:21:16;;;;;;;;;;;;;;;7.13;100.00;103718.00;10403764;28;19925;-65
2023/02/12 22:26:19;;;;;;;;;;;;;;;7.02;100.00;103719.69;10416823;28;19925;-65
2023/02/12 22:31:22;;;;;;;;;;;;;;;7.06;100.00;103719.72;10388315;28;19933;-65
2023/02/12 22:36:25;;;;;;;;;;;;;;;6.82;100.00;103720.47;10375975;28;19931;-65
2023/02/12 22:41:28;;;;;;;;;;;;;;;7.01;100.00;103724.03;10375607;28;19926;-65
2023/02/12 22:46:30;;;;;;;;;;;;;;;6.88;100.00;103724.84;10376493;28;19955;-65
2023/02/12 22:51:33;;;;;;;;;;;;;;;6.91;100.00;103727.47;10375893;28;19925;-65
2023/02/12 22:56:35;;;;;;;;;;;;;;;7.02;100.00;103717.09;10374666;28;20028;-65
2023/02/12 23:01:38;;;;;;;;;;;;;;;6.91;100.00;103721.38;10374716;28;20300;-65
2023/02/12 23:06:41;;;;;;;;;;;;;;;6.64;100.00;103723.84;10374736;28;19975;-65
2023/02/12 23:11:43;;;;;;;;;;;;;;;7.09;100.00;103712.78;10374262;28;20266;-65
2023/02/12 23:16:45;;;;;;;;;;;;;;;6.74;100.00;103714.38;10357593;28;19952;-65
2023/02/12 23:21:48;;;;;;;;;;;;;;;6.95;100.00;103710.97;10374468;28;19965;-65
2023/02/12 23:26:51;;;;;;;;;;;;;;;6.83;100.00;103706.59;10375439;28;19936;-65
2023/02/12 23:31:53;;;;;;;;;;;;;;;6.53;100.00;103702.09;10373876;28;19926;-65
2023/02/12 23:36:55;;;;;;;;;;;;;;;6.81;100.00;103697.03;10375878;28;19926;-65
2023/02/12 23:41:57;;;;;;;;;;;;;;;6.80;100.00;103696.16;10375222;28;19979;-65
2023/02/12 23:47:00;;;;;;;;;;;;;;;6.50;100.00;103694.25;10374046;28;19953;-65
2023/02/12 23:52:03;;;;;;;;;;;;;;;6.39;100.00;103689.00;10375179;28;19931;-65
2023/02/12 23:57:05;;;;;;;;;;;;;;;6.62;100.00;103675.22;10374933;28;19979;-65
